Time;durP1;ratioP1;P1;durP2;ratioP2;P2;SDS_P1;SDS_P2;PMS_P1;PMS_P2;Temp;Humidity;BMP_temperature;BMP_pressure;BME280_temperature;BME280_humidity;BME280_pressure;Samples;Min_cycle;Max_cycle;Signal;HPM_P1;HPM_P2
2022/02/26 00:02:15;;;;;;;22.20;3.00;;;1.90;99.90;;;;;;5017428;28;20485;-89
2022/02/26 00:04:40;;;;;;;24.25;2.88;;;1.90;99.90;;;;;;5017793;28;20067;-90
2022/02/26 00:07:07;;;;;;;21.90;3.50;;;1.90;99.90;;;;;;5017635;28;20128;-89
2022/02/26 00:09:33;;;;;;;22.20;2.90;;;1.90;99.90;;;;;;5018051;28;20065;-89
2022/02/26 00:11:59;;;;;;;17.80;2.38;;;1.80;99.90;;;;;;5035106;28;20037;-90
2022/02/26 00:14:25;;;;;;;14.07;2.63;;;1.80;99.90;;;;;;5018243;28;20029;-89
2022/02/26 00:16:50;;;;;;;29.30;3.45;;;1.80;99.90;;;;;;5017925;28;20049;-90
2022/02/26 00:19:16;;;;;;;20.77;3.13;;;1.80;99.90;;;;;;5016377;28;20113;-90
2022/02/26 00:21:41;;;;;;;19.42;3.47;;;1.80;99.90;;;;;;5035388;28;20087;-90
2022/02/26 00:24:07;;;;;;;19.83;2.47;;;1.80;99.90;;;;;;5015742;28;20033;-90
2022/02/26 00:26:33;;;;;;;20.00;3.63;;;1.80;99.90;;;;;;5016130;28;20061;-89
2022/02/26 00:28:59;;;;;;;28.42;4.63;;;1.80;99.90;;;;;;5017738;28;20523;-90
2022/02/26 00:31:24;;;;;;;14.90;2.58;;;1.70;99.90;;;;;;5018024;28;20147;-90
2022/02/26 00:33:50;;;;;;;26.98;3.42;;;1.70;99.90;;;;;;5017289;28;20030;-90
2022/02/26 00:36:15;;;;;;;26.95;4.53;;;1.70;99.90;;;;;;5015213;28;20033;-90
2022/02/26 00:38:41;;;;;;;22.55;3.33;;;1.60;99.90;;;;;;5018092;28;20416;-90
2022/02/26 00:41:06;;;;;;;17.20;2.85;;;1.60;99.90;;;;;;5016775;28;20124;-89
2022/02/26 00:43:32;;;;;;;22.45;2.95;;;1.50;99.90;;;;;;5014286;28;20118;-90
2022/02/26 00:45:58;;;;;;;23.70;3.33;;;1.40;99.90;;;;;;5014158;28;20022;-89
2022/02/26 00:49:46;;;;;;;24.83;2.97;;;1.40;99.90;;;;;;5005418;28;20022;-89
2022/02/26 00:51:09;;;;;;;22.58;2.85;;;1.30;99.90;;;;;;5014609;28;20363;-90
2022/02/26 00:53:34;;;;;;;20.33;3.08;;;1.20;99.90;;;;;;5015945;28;20116;-90
2022/02/26 00:56:00;;;;;;;23.35;2.65;;;1.20;99.90;;;;;;5013032;28;20022;-90
2022/02/26 00:58:25;;;;;;;23.15;3.40;;;1.10;99.90;;;;;;5027515;28;20064;-89
2022/02/26 01:00:51;;;;;;;26.08;3.10;;;1.00;99.90;;;;;;5008749;28;20118;-90
2022/02/26 01:03:16;;;;;;;14.02;2.53;;;1.00;99.90;;;;;;5014559;28;20022;-89
2022/02/26 01:05:42;;;;;;;13.48;2.80;;;0.90;99.90;;;;;;5013845;28;20064;-89
2022/02/26 01:08:09;;;;;;;20.33;2.88;;;0.90;99.90;;;;;;5014067;28;20080;-90
2022/02/26 01:10:35;;;;;;;15.02;3.10;;;0.80;99.90;;;;;;5013575;28;20030;-90
2022/02/26 01:13:00;;;;;;;18.65;2.80;;;0.70;99.90;;;;;;5013312;28;20419;-90
2022/02/26 01:15:26;;;;;;;21.33;2.75;;;0.70;99.90;;;;;;5013506;28;20021;-89
2022/02/26 01:17:52;;;;;;;18.70;3.80;;;0.60;99.90;;;;;;4996917;28;20042;-89
2022/02/26 01:20:18;;;;;;;14.60;2.95;;;0.60;99.90;;;;;;5013447;28;20029;-90
2022/02/26 01:22:43;;;;;;;17.13;2.58;;;0.60;99.90;;;;;;5014458;28;20037;-89
2022/02/26 01:25:09;;;;;;;14.82;3.33;;;0.60;99.90;;;;;;5013354;28;20390;-89
2022/02/26 01:27:34;;;;;;;18.45;2.90;;;0.60;99.90;;;;;;5013613;28;20531;-89
2022/02/26 01:30:00;;;;;;;17.13;3.33;;;0.50;99.90;;;;;;5013027;28;20025;-88
2022/02/26 01:32:26;;;;;;;17.85;2.78;;;0.50;99.90;;;;;;5013343;28;20477;-89
2022/02/26 01:34:51;;;;;;;17.98;3.30;;;0.50;99.90;;;;;;5013113;28;20067;-89
2022/02/26 01:37:16;;;;;;;12.05;3.35;;;0.50;99.90;;;;;;5013717;28;20030;-90
2022/02/26 01:39:42;;;;;;;12.35;3.03;;;0.40;99.90;;;;;;5003457;28;20033;-90
2022/02/26 01:42:08;;;;;;;22.60;3.10;;;0.40;99.90;;;;;;5012194;28;20038;-89
2022/02/26 01:44:37;;;;;;;17.92;2.97;;;0.40;99.90;;;;;;5009414;28;20030;-89
2022/02/26 01:47:04;;;;;;;22.20;3.70;;;0.30;99.90;;;;;;5009214;28;20109;-90
2022/02/26 01:49:29;;;;;;;17.63;3.58;;;0.30;99.90;;;;;;5013149;28;20029;-89
2022/02/26 01:51:55;;;;;;;13.55;2.97;;;0.20;99.90;;;;;;5012562;28;20052;-90
2022/02/26 01:54:20;;;;;;;17.73;2.70;;;0.20;99.90;;;;;;5012926;28;20025;-89
2022/02/26 01:56:46;;;;;;;20.30;3.58;;;0.10;99.90;;;;;;5011686;28;20037;-90
2022/02/26 01:59:12;;;;;;;20.17;3.22;;;0.10;99.90;;;;;;5008442;28;20029;-89
2022/02/26 02:01:38;;;;;;;19.55;3.78;;;0.10;99.90;;;;;;5012879;28;20096;-89
2022/02/26 02:04:04;;;;;;;22.90;4.50;;;0.10;99.90;;;;;;5011224;28;20026;-90
2022/02/26 02:06:30;;;;;;;21.17;3.78;;;0.10;99.90;;;;;;5012451;28;20046;-89
2022/02/26 02:08:56;;;;;;;15.38;3.28;;;0.10;99.90;;;;;;5012379;28;20560;-89
2022/02/26 02:11:22;;;;;;;18.08;4.50;;;0.10;99.90;;;;;;5003590;28;20117;-89
2022/02/26 02:13:48;;;;;;;17.90;3.53;;;0.00;99.90;;;;;;5027696;28;20113;-88
2022/02/26 02:16:17;;;;;;;21.05;4.15;;;0.00;99.90;;;;;;5011400;28;20456;-88
2022/02/26 02:18:43;;;;;;;17.48;2.97;;;0.10;99.90;;;;;;5012558;28;20037;-89
2022/02/26 02:21:09;;;;;;;19.85;3.50;;;0.00;99.90;;;;;;5012464;28;20128;-88
2022/02/26 02:23:34;;;;;;;21.38;4.65;;;0.00;99.90;;;;;;5012773;28;20021;-88
2022/02/26 02:26:01;;;;;;;24.38;3.80;;;0.00;99.90;;;;;;5012837;28;20357;-88
2022/02/26 02:28:26;;;;;;;20.80;4.88;;;-0.10;99.90;;;;;;5012061;28;20021;-88
2022/02/26 02:30:52;;;;;;;20.08;4.47;;;-0.10;99.90;;;;;;5010959;28;20022;-88
2022/02/26 02:33:19;;;;;;;22.45;4.18;;;-0.20;99.90;;;;;;5011577;28;21921;-88
2022/02/26 02:35:44;;;;;;;13.68;4.13;;;-0.10;99.90;;;;;;5011738;28;20092;-88
2022/02/26 02:38:15;;;;;;;22.40;5.28;;;-0.10;99.90;;;;;;5010196;28;20022;-88
2022/02/26 02:40:42;;;;;;;15.60;5.05;;;0.00;99.90;;;;;;5025462;28;20033;-89
2022/02/26 02:43:09;;;;;;;27.30;4.55;;;0.00;99.90;;;;;;5025645;28;20551;-88
2022/02/26 02:45:36;;;;;;;21.77;4.20;;;0.10;99.90;;;;;;5016941;28;20064;-88
2022/02/26 02:48:02;;;;;;;21.13;4.40;;;0.10;99.90;;;;;;5014493;28;20036;-89
2022/02/26 02:50:27;;;;;;;16.33;4.65;;;0.00;99.90;;;;;;5013612;28;20017;-88
2022/02/26 02:52:53;;;;;;;28.77;6.10;;;-0.10;99.90;;;;;;5011022;28;20484;-88
2022/02/26 02:55:21;;;;;;;24.25;5.25;;;-0.10;99.90;;;;;;5014935;28;20032;-89
2022/02/26 02:57:49;;;;;;;35.88;4.80;;;-0.10;99.90;;;;;;5014512;28;20018;-88
2022/02/26 03:00:15;;;;;;;36.22;5.00;;;-0.20;99.90;;;;;;5015351;28;20025;-88
2022/02/26 03:02:42;;;;;;;21.27;5.03;;;-0.30;99.90;;;;;;5015693;28;20041;-88
2022/02/26 03:05:09;;;;;;;35.25;7.65;;;-0.50;99.90;;;;;;5014748;28;20066;-88
2022/02/26 03:07:35;;;;;;;18.88;6.47;;;-0.50;99.90;;;;;;5015425;28;20025;-88
2022/02/26 03:10:01;;;;;;;27.88;5.78;;;-0.50;99.90;;;;;;5015054;28;20682;-88
2022/02/26 03:12:27;;;;;;;25.73;5.65;;;-0.50;99.90;;;;;;5015335;28;20122;-89
2022/02/26 03:14:52;;;;;;;28.35;7.65;;;-0.50;99.90;;;;;;5014780;28;20466;-87
2022/02/26 03:17:18;;;;;;;25.08;7.32;;;-0.50;99.90;;;;;;5016200;28;20044;-88
2022/02/26 03:19:47;;;;;;;29.95;6.60;;;-0.40;99.90;;;;;;5015012;28;20056;-88
2022/02/26 03:22:13;;;;;;;19.42;6.25;;;-0.40;99.90;;;;;;5014996;28;20036;-89
2022/02/26 03:24:38;;;;;;;32.85;7.80;;;-0.40;99.90;;;;;;5013759;28;20021;-88
2022/02/26 03:27:04;;;;;;;42.42;8.68;;;-0.40;99.90;;;;;;5010250;28;20033;-88
2022/02/26 03:29:30;;;;;;;33.90;9.45;;;-0.40;99.90;;;;;;5013612;28;20079;-88
2022/02/26 03:31:56;;;;;;;27.92;7.05;;;-0.30;99.90;;;;;;5013778;28;20033;-88
2022/02/26 03:34:21;;;;;;;27.55;6.80;;;-0.30;99.90;;;;;;5009971;28;20018;-88
2022/02/26 03:36:48;;;;;;;23.60;7.65;;;-0.30;99.90;;;;;;5012224;28;20131;-89
2022/02/26 03:39:14;;;;;;;26.55;6.93;;;-0.40;99.90;;;;;;5014979;28;20519;-88
2022/02/26 03:41:40;;;;;;;25.27;7.40;;;-0.40;99.90;;;;;;5014205;28;20047;-88
2022/02/26 03:44:06;;;;;;;26.50;6.80;;;-0.40;99.90;;;;;;5013613;28;20026;-88
2022/02/26 03:46:32;;;;;;;33.00;9.98;;;-0.50;99.90;;;;;;5014556;28;20072;-88
2022/02/26 03:48:57;;;;;;;34.47;10.10;;;-0.50;99.90;;;;;;5027308;28;20048;-89
2022/02/26 03:51:23;;;;;;;31.80;10.40;;;-0.50;99.90;;;;;;5012234;28;20554;-88
2022/02/26 03:53:48;;;;;;;26.33;10.80;;;-0.40;99.90;;;;;;5017629;28;20029;-88
2022/02/26 03:56:14;;;;;;;40.20;12.57;;;-0.40;99.90;;;;;;5016527;28;20092;-88
2022/02/26 03:58:39;;;;;;;36.97;11.45;;;-0.40;99.90;;;;;;5017692;28;20025;-88
2022/02/26 04:01:05;;;;;;;34.50;11.68;;;-0.30;99.90;;;;;;5018206;28;20112;-88
2022/02/26 04:03:30;;;;;;;32.22;10.88;;;-0.20;99.90;;;;;;5017534;28;20026;-88
2022/02/26 04:05:56;;;;;;;36.38;13.20;;;-0.10;99.90;;;;;;5018303;28;20025;-88
2022/02/26 04:08:21;;;;;;;36.85;12.80;;;-0.10;99.90;;;;;;5017873;28;20025;-89
2022/02/26 04:10:47;;;;;;;49.08;14.60;;;-0.10;99.90;;;;;;5011238;28;20061;-88
2022/02/26 04:13:12;;;;;;;35.65;14.93;;;-0.10;99.90;;;;;;5017969;28;20079;-88
2022/02/26 04:15:38;;;;;;;50.60;15.30;;;0.00;99.90;;;;;;5017108;28;20044;-88
2022/02/26 04:18:04;;;;;;;39.08;14.20;;;0.00;99.90;;;;;;5035248;28;20469;-89
2022/02/26 04:20:29;;;;;;;39.55;15.10;;;0.10;99.90;;;;;;5035336;28;20492;-88
2022/02/26 04:22:55;;;;;;;40.67;15.95;;;0.10;99.90;;;;;;5017746;28;20048;-89
2022/02/26 04:25:20;;;;;;;39.65;16.02;;;0.10;99.90;;;;;;5034826;28;20028;-89
2022/02/26 04:27:47;;;;;;;41.83;16.08;;;0.10;99.90;;;;;;5017251;28;20362;-88
2022/02/26 04:30:12;;;;;;;37.45;14.30;;;0.10;99.90;;;;;;5032437;28;20037;-89
2022/02/26 04:32:40;;;;;;;39.75;15.82;;;0.10;99.90;;;;;;5018415;28;20397;-89
2022/02/26 04:35:06;;;;;;;38.28;14.90;;;0.00;99.90;;;;;;5016928;28;20022;-88
2022/02/26 04:37:32;;;;;;;36.58;15.50;;;0.00;99.90;;;;;;5033637;28;20029;-88
2022/02/26 04:39:59;;;;;;;38.55;14.88;;;0.00;99.90;;;;;;5016805;28;20029;-89
2022/02/26 04:42:25;;;;;;;43.70;15.75;;;0.00;99.90;;;;;;5014635;28;20058;-89
2022/02/26 04:44:50;;;;;;;52.05;16.77;;;0.00;99.90;;;;;;5034862;28;20491;-88
2022/02/26 04:47:16;;;;;;;39.25;16.15;;;0.00;99.90;;;;;;5016679;28;20120;-89
2022/02/26 04:49:42;;;;;;;36.15;15.07;;;-0.10;99.90;;;;;;5033928;28;20056;-88
2022/02/26 04:52:08;;;;;;;34.60;13.63;;;-0.10;99.90;;;;;;5032943;28;20041;-89
2022/02/26 04:54:34;;;;;;;45.67;14.88;;;-0.20;99.90;;;;;;5032718;28;20009;-89
2022/02/26 04:57:00;;;;;;;38.63;13.43;;;-0.20;99.90;;;;;;5013962;28;20036;-88
2022/02/26 04:59:25;;;;;;;35.13;14.90;;;-0.30;99.90;;;;;;5015838;28;20021;-89
2022/02/26 05:01:51;;;;;;;40.17;14.55;;;-0.40;99.90;;;;;;5015663;28;20448;-88
2022/02/26 05:04:16;;;;;;;35.75;14.93;;;-0.40;99.90;;;;;;5015653;28;20018;-89
2022/02/26 05:06:42;;;;;;;38.22;15.63;;;-0.40;99.90;;;;;;5033445;28;20116;-89
2022/02/26 05:09:08;;;;;;;38.08;16.10;;;-0.50;99.90;;;;;;5016523;28;20386;-89
2022/02/26 05:11:33;;;;;;;52.10;19.20;;;-0.50;99.90;;;;;;5016482;28;20022;-89
2022/02/26 05:13:59;;;;;;;54.90;20.95;;;-0.40;99.90;;;;;;5018331;28;20454;-89
2022/02/26 05:16:24;;;;;;;54.72;22.63;;;-0.30;99.90;;;;;;5014272;28;20040;-89
2022/02/26 05:18:50;;;;;;;64.35;21.52;;;-0.20;99.90;;;;;;5016175;28;20117;-88
2022/02/26 05:21:16;;;;;;;52.97;22.20;;;-0.20;99.90;;;;;;5016400;28;20047;-89
2022/02/26 05:23:42;;;;;;;50.55;21.65;;;-0.20;99.90;;;;;;5014960;28;20029;-89
2022/02/26 05:26:12;;;;;;;43.58;20.77;;;-0.10;99.90;;;;;;5015672;28;20025;-89
2022/02/26 05:28:38;;;;;;;58.35;23.38;;;-0.20;99.90;;;;;;5013615;28;20095;-89
2022/02/26 05:31:04;;;;;;;61.90;22.00;;;-0.10;99.90;;;;;;5033630;28;20022;-89
2022/02/26 05:33:30;;;;;;;53.08;21.63;;;-0.10;99.90;;;;;;5014839;28;20074;-89
2022/02/26 05:35:56;;;;;;;54.70;22.30;;;-0.10;99.90;;;;;;5030927;28;20390;-88
2022/02/26 05:38:21;;;;;;;51.92;21.88;;;-0.10;99.90;;;;;;5030870;28;20037;-89
2022/02/26 05:40:47;;;;;;;60.63;24.73;;;-0.10;99.90;;;;;;5011942;28;20101;-88
2022/02/26 05:43:12;;;;;;;57.90;23.65;;;-0.20;99.90;;;;;;5030595;28;20052;-90
2022/02/26 05:45:40;;;;;;;56.70;20.58;;;-0.20;99.90;;;;;;5016016;28;20037;-89
2022/02/26 05:48:05;;;;;;;58.90;21.13;;;-0.20;99.90;;;;;;5013016;28;20052;-89
2022/02/26 05:50:31;;;;;;;41.25;19.30;;;-0.10;99.90;;;;;;5015228;28;20537;-89
2022/02/26 05:52:57;;;;;;;52.92;19.83;;;-0.20;99.90;;;;;;5015552;28;20021;-89
2022/02/26 05:55:23;;;;;;;49.00;20.50;;;-0.20;99.90;;;;;;5015623;28;20044;-89
2022/02/26 05:57:48;;;;;;;50.22;21.02;;;-0.20;99.90;;;;;;5014872;28;20030;-89
2022/02/26 06:00:14;;;;;;;41.78;20.55;;;-0.10;99.90;;;;;;5016112;28;20021;-89
2022/02/26 06:02:40;;;;;;;57.78;22.70;;;-0.20;99.90;;;;;;5015719;28;20115;-90
2022/02/26 06:05:07;;;;;;;48.95;21.17;;;-0.10;99.90;;;;;;5015776;28;20021;-90
2022/02/26 06:07:32;;;;;;;56.92;22.33;;;-0.20;99.90;;;;;;5032927;28;20052;-89
2022/02/26 06:09:58;;;;;;;61.20;22.35;;;-0.20;99.90;;;;;;5016725;28;20029;-90
2022/02/26 06:12:24;;;;;;;59.10;23.90;;;-0.20;99.90;;;;;;5015432;28;20056;-89
2022/02/26 06:14:49;;;;;;;53.17;20.15;;;-0.20;99.90;;;;;;5015306;28;20025;-90
2022/02/26 06:17:15;;;;;;;50.85;21.75;;;-0.20;99.90;;;;;;5015558;28;20045;-90
2022/02/26 06:19:40;;;;;;;60.25;21.88;;;-0.20;99.90;;;;;;5014748;28;20029;-90
2022/02/26 06:22:06;;;;;;;56.97;22.38;;;-0.30;99.90;;;;;;5014806;28;20036;-90
2022/02/26 06:24:31;;;;;;;53.00;22.13;;;-0.30;99.90;;;;;;5015384;28;20071;-90
2022/02/26 06:26:57;;;;;;;52.83;22.25;;;-0.30;99.90;;;;;;5015924;28;20036;-90
2022/02/26 06:29:23;;;;;;;60.60;23.05;;;-0.40;99.90;;;;;;5015573;28;20022;-90
2022/02/26 06:31:48;;;;;;;50.25;18.98;;;-0.40;99.90;;;;;;5011882;28;20022;-90
2022/02/26 06:34:14;;;;;;;53.28;23.13;;;-0.40;99.90;;;;;;5015403;28;20017;-90
2022/02/26 06:36:40;;;;;;;52.53;23.45;;;-0.40;99.90;;;;;;5014222;28;20030;-89
2022/02/26 06:39:05;;;;;;;60.40;23.08;;;-0.40;99.90;;;;;;5014843;28;20079;-90
2022/02/26 06:41:31;;;;;;;44.80;21.20;;;-0.40;99.90;;;;;;5016127;28;20112;-89
2022/02/26 06:43:58;;;;;;;59.17;23.13;;;-0.50;99.90;;;;;;5011446;28;20490;-90
2022/02/26 06:46:23;;;;;;;57.03;22.02;;;-0.60;99.90;;;;;;5010522;28;20038;-90
2022/02/26 06:48:49;;;;;;;58.00;22.27;;;-0.60;99.90;;;;;;5011645;28;20072;-90
2022/02/26 06:51:15;;;;;;;66.70;23.15;;;-0.70;99.90;;;;;;5009478;28;20117;-90
2022/02/26 06:53:40;;;;;;;53.90;22.60;;;-0.70;99.90;;;;;;5010560;28;20022;-89
2022/02/26 06:56:06;;;;;;;42.63;20.13;;;-0.70;99.90;;;;;;5015382;28;20532;-90
2022/02/26 06:58:32;;;;;;;50.47;20.15;;;-0.70;99.90;;;;;;5011701;28;20033;-89
2022/02/26 07:00:59;;;;;;;57.22;23.98;;;-0.70;99.90;;;;;;5007959;28;20029;-89
2022/02/26 07:03:25;;;;;;;56.90;22.70;;;-0.70;99.90;;;;;;5027076;28;20148;-90
2022/02/26 07:05:50;;;;;;;39.03;19.90;;;-0.70;99.90;;;;;;5028799;28;20493;-89
2022/02/26 07:08:16;;;;;;;58.70;22.60;;;-0.70;99.90;;;;;;5012809;28;20040;-90
2022/02/26 07:10:41;;;;;;;53.67;19.38;;;-0.70;99.90;;;;;;5010247;28;20038;-90
2022/02/26 07:13:07;;;;;;;44.05;20.13;;;-0.70;99.90;;;;;;5014798;28;20486;-90
2022/02/26 07:15:33;;;;;;;49.78;22.48;;;-0.70;99.90;;;;;;5030215;28;20036;-90
2022/02/26 07:17:58;;;;;;;51.50;21.15;;;-0.70;99.90;;;;;;5015976;28;20057;-90
2022/02/26 07:20:24;;;;;;;48.92;21.50;;;-0.70;99.90;;;;;;5034104;28;20034;-90
2022/02/26 07:22:49;;;;;;;53.20;22.15;;;-0.70;99.90;;;;;;5015276;28;20541;-90
2022/02/26 07:25:15;;;;;;;61.65;22.33;;;-0.70;99.90;;;;;;5016391;28;20120;-90
2022/02/26 07:27:41;;;;;;;48.58;21.23;;;-0.70;99.90;;;;;;5017669;28;20033;-89
2022/02/26 07:30:07;;;;;;;42.65;21.20;;;-0.60;99.90;;;;;;5020993;28;20037;-90
2022/02/26 07:32:33;;;;;;;46.60;22.20;;;-0.60;99.90;;;;;;5019989;28;20026;-90
2022/02/26 07:34:59;;;;;;;48.75;20.60;;;-0.60;99.90;;;;;;5021010;28;20045;-90
2022/02/26 07:37:25;;;;;;;51.00;23.13;;;-0.50;99.90;;;;;;5020757;28;20030;-89
2022/02/26 07:39:50;;;;;;;47.28;21.60;;;-0.50;99.90;;;;;;5019523;28;20461;-89
2022/02/26 07:42:16;;;;;;;52.78;22.27;;;-0.50;99.90;;;;;;5015426;28;20042;-89
2022/02/26 07:44:42;;;;;;;64.82;24.50;;;-0.40;99.90;;;;;;5024025;28;21019;-90
2022/02/26 07:47:07;;;;;;;48.97;23.98;;;-0.30;99.90;;;;;;5005806;28;20105;-91
2022/02/26 07:49:33;;;;;;;51.50;25.33;;;-0.20;99.90;;;;;;5005001;28;20030;-91
2022/02/26 07:51:58;;;;;;;55.95;24.90;;;-0.20;99.90;;;;;;5008808;28;20064;-90
2022/02/26 07:54:24;;;;;;;63.63;25.75;;;-0.10;99.90;;;;;;5008976;28;20539;-90
2022/02/26 07:56:50;;;;;;;57.45;24.75;;;0.00;99.90;;;;;;5005680;28;20037;-90
2022/02/26 07:59:15;;;;;;;53.20;23.55;;;0.00;99.90;;;;;;5027746;28;20026;-90
2022/02/26 08:01:41;;;;;;;58.78;22.95;;;0.10;99.90;;;;;;5032602;28;20497;-89
2022/02/26 08:04:09;;;;;;;54.92;24.48;;;0.20;99.90;;;;;;5014475;28;20057;-90
2022/02/26 08:06:35;;;;;;;60.10;27.63;;;0.30;99.90;;;;;;5015529;28;20034;-89
2022/02/26 08:09:00;;;;;;;48.80;25.50;;;0.30;99.90;;;;;;4998045;28;20053;-89
2022/02/26 08:11:29;;;;;;;59.55;27.65;;;0.40;99.90;;;;;;5001965;28;20041;-90
2022/02/26 08:13:55;;;;;;;62.85;28.95;;;0.50;99.90;;;;;;5003413;28;20589;-89
2022/02/26 08:16:26;;;;;;;67.05;30.67;;;0.60;99.90;;;;;;5002379;28;20033;-89
2022/02/26 08:18:52;;;;;;;71.95;30.50;;;0.70;99.90;;;;;;5021687;28;20054;-90
2022/02/26 08:21:20;;;;;;;68.78;31.23;;;0.80;99.90;;;;;;5024251;28;20025;-89
2022/02/26 08:23:46;;;;;;;69.43;33.45;;;1.00;99.90;;;;;;5004941;28;20081;-88
2022/02/26 08:26:14;;;;;;;60.15;32.65;;;1.10;99.90;;;;;;5020807;28;20045;-89
2022/02/26 08:28:40;;;;;;;61.88;33.05;;;1.20;99.90;;;;;;5010399;28;20029;-89
2022/02/26 08:31:06;;;;;;;65.30;34.17;;;1.40;99.90;;;;;;5006430;28;20038;-91
2022/02/26 08:33:31;;;;;;;66.15;34.40;;;1.50;99.90;;;;;;5003152;28;20109;-90
2022/02/26 08:35:57;;;;;;;64.97;35.47;;;1.60;99.90;;;;;;5003983;28;20121;-91
2022/02/26 08:38:22;;;;;;;66.47;35.13;;;1.70;99.90;;;;;;5010323;28;20388;-90
2022/02/26 08:40:48;;;;;;;60.25;36.08;;;1.80;99.90;;;;;;5010839;28;20065;-89
2022/02/26 08:43:13;;;;;;;229.40;69.40;;;1.90;99.90;;;;;;5011182;28;20037;-89
2022/02/26 08:45:42;;;;;;;78.72;42.05;;;2.00;99.90;;;;;;5011134;28;20402;-90
2022/02/26 08:48:07;;;;;;;73.90;40.88;;;2.20;99.90;;;;;;5006515;28;20058;-90
2022/02/26 08:50:33;;;;;;;68.43;40.05;;;2.20;99.90;;;;;;5019720;28;20028;-91
2022/02/26 08:52:59;;;;;;;77.25;40.47;;;2.30;99.90;;;;;;5017353;28;20378;-92
2022/02/26 08:55:24;;;;;;;68.35;38.88;;;2.40;99.90;;;;;;5012201;28;20022;-90
2022/02/26 08:57:50;;;;;;;74.45;40.63;;;2.40;99.90;;;;;;5011100;28;20031;-92
2022/02/26 09:00:16;;;;;;;59.42;36.75;;;2.50;99.90;;;;;;5000826;28;20045;-91
2022/02/26 09:02:43;;;;;;;69.32;39.78;;;2.60;99.90;;;;;;5004346;28;20407;-89
2022/02/26 09:05:10;;;;;;;60.78;36.88;;;2.80;99.90;;;;;;5019086;28;20053;-91
2022/02/26 09:07:35;;;;;;;60.53;37.95;;;2.80;99.90;;;;;;5019153;28;20140;-92
2022/02/26 09:10:02;;;;;;;65.32;39.03;;;3.00;99.90;;;;;;5014078;28;20022;-91
2022/02/26 09:12:28;;;;;;;65.47;41.63;;;3.00;99.90;;;;;;5010980;28;20619;-91
2022/02/26 09:14:54;;;;;;;64.35;40.60;;;3.10;99.90;;;;;;5011387;28;20034;-91
2022/02/26 09:17:19;;;;;;;63.00;38.95;;;3.20;99.90;;;;;;5009255;28;20093;-91
2022/02/26 09:19:45;;;;;;;59.42;39.28;;;3.30;99.90;;;;;;5015514;28;20037;-91
2022/02/26 09:22:10;;;;;;;73.65;41.83;;;3.40;99.90;;;;;;5009380;28;20171;-92
2022/02/26 09:24:36;;;;;;;61.88;39.90;;;3.50;99.90;;;;;;5011340;28;20037;-92
2022/02/26 09:27:02;;;;;;;63.58;39.55;;;3.60;99.90;;;;;;5014971;28;20034;-92
2022/02/26 09:29:27;;;;;;;67.40;39.50;;;3.70;99.90;;;;;;5013827;28;20168;-93
2022/02/26 09:31:53;;;;;;;59.78;38.75;;;3.80;99.90;;;;;;5014219;28;20076;-91
2022/02/26 09:34:20;;;;;;;64.57;37.88;;;3.90;99.90;;;;;;5011187;28;20031;-92
2022/02/26 09:36:47;;;;;;;68.78;38.00;;;4.00;99.90;;;;;;5009163;28;20076;-91
2022/02/26 09:39:13;;;;;;;60.22;39.45;;;4.10;99.90;;;;;;5014658;28;20228;-90
2022/02/26 09:41:41;;;;;;;62.47;37.30;;;4.30;99.90;;;;;;5011875;28;20378;-91
2022/02/26 09:44:08;;;;;;;51.67;35.47;;;4.40;99.90;;;;;;5014645;28;20100;-90
2022/02/26 09:46:34;;;;;;;53.95;33.25;;;4.50;99.90;;;;;;5016662;28;20021;-91
2022/02/26 09:49:00;;;;;;;51.45;32.67;;;4.70;99.90;;;;;;5016116;28;20030;-91
2022/02/26 09:51:26;;;;;;;47.55;30.08;;;4.80;99.90;;;;;;5017647;28;20033;-91
2022/02/26 09:53:54;;;;;;;50.15;27.17;;;5.00;99.90;;;;;;5027088;28;20037;-91
2022/02/26 09:56:22;;;;;;;50.75;26.23;;;5.10;99.90;;;;;;5023531;28;20018;-91
2022/02/26 09:58:49;;;;;;;47.45;24.48;;;5.20;99.90;;;;;;5028411;28;20091;-92
2022/02/26 10:01:15;;;;;;;40.03;24.58;;;5.30;99.90;;;;;;5012935;28;20477;-91
2022/02/26 10:03:40;;;;;;;37.65;23.98;;;5.40;99.90;;;;;;5016427;28;20026;-92
2022/02/26 10:06:14;;;;;;;35.10;21.67;;;5.50;99.90;;;;;;5012956;28;20097;-91
2022/02/26 10:08:43;;;;;;;41.72;21.23;;;5.60;99.90;;;;;;5008455;28;20029;-91
2022/02/26 10:11:38;;;;;;;31.92;17.52;;;5.60;99.90;;;;;;5006490;28;20135;-91
2022/02/26 10:14:16;;;;;;;44.13;18.55;;;5.70;99.90;;;;;;5010228;28;20044;-90
2022/02/26 10:16:58;;;;;;;26.30;12.13;;;5.80;99.90;;;;;;5015342;28;20034;-90
2022/02/26 10:19:34;;;;;;;27.85;16.38;;;5.90;99.90;;;;;;5031732;28;20151;-90
2022/02/26 10:22:05;;;;;;;27.10;12.35;;;6.00;99.90;;;;;;5010311;28;20052;-90
2022/02/26 10:24:32;;;;;;;26.70;11.45;;;6.10;99.90;;;;;;5017561;28;20025;-90
2022/02/26 10:27:03;;;;;;;30.60;8.57;;;6.10;99.90;;;;;;5015222;28;20172;-90
2022/02/26 10:29:30;;;;;;;25.65;6.65;;;6.20;99.90;;;;;;5020115;28;20017;-90
2022/02/26 10:31:58;;;;;;;22.15;6.45;;;6.20;99.90;;;;;;5011158;28;20024;-90
2022/02/26 10:34:33;;;;;;;24.65;9.02;;;6.30;99.90;;;;;;5025809;28;20503;-90
2022/02/26 10:37:08;;;;;;;21.75;7.93;;;6.30;99.90;;;;;;5014467;28;20029;-89
2022/02/26 10:39:52;;;;;;;22.73;8.57;;;6.40;99.90;;;;;;5017491;28;20084;-92
2022/02/26 10:42:28;;;;;;;21.98;8.85;;;6.50;99.90;;;;;;5014892;28;20532;-91
2022/02/26 10:45:12;;;;;;;20.83;6.78;;;6.50;99.90;;;;;;5031615;28;20048;-89
2022/02/26 10:47:41;;;;;;;23.50;5.20;;;6.60;99.90;;;;;;5015662;28;20036;-89
2022/02/26 10:50:24;;;;;;;20.73;5.60;;;6.60;99.90;;;;;;5032473;28;20057;-90
2022/02/26 10:52:58;;;;;;;18.75;4.05;;;6.80;99.90;;;;;;5022647;28;20022;-90
2022/02/26 10:55:43;;;;;;;17.00;3.90;;;6.80;99.90;;;;;;5012216;28;20057;-91
2022/02/26 10:58:19;;;;;;;18.33;5.82;;;6.90;99.90;;;;;;5013132;28;20045;-91
2022/02/26 11:00:44;;;;;;;21.60;7.55;;;6.90;99.90;;;;;;5010324;28;20029;-91
2022/02/26 11:03:10;;;;;;;17.45;7.65;;;6.90;99.90;;;;;;5010992;28;20033;-90
2022/02/26 11:05:37;;;;;;;16.70;4.47;;;6.90;99.90;;;;;;5012943;28;20022;-91
2022/02/26 11:08:02;;;;;;;16.50;5.35;;;6.80;99.90;;;;;;5017388;28;20038;-91
2022/02/26 11:10:29;;;;;;;17.95;6.40;;;6.80;99.90;;;;;;5035383;28;20030;-91
2022/02/26 11:12:56;;;;;;;19.13;5.60;;;6.70;99.90;;;;;;5018836;28;20055;-91
2022/02/26 11:15:22;;;;;;;19.88;4.75;;;6.60;99.90;;;;;;5017163;28;20097;-89
2022/02/26 11:17:49;;;;;;;16.50;4.55;;;6.60;99.90;;;;;;5021755;28;20115;-90
2022/02/26 11:20:18;;;;;;;18.35;4.28;;;6.70;99.90;;;;;;5018385;28;20501;-90
2022/02/26 11:22:47;;;;;;;18.02;4.78;;;6.80;99.90;;;;;;5017888;28;20041;-91
2022/02/26 11:25:13;;;;;;;11.02;3.72;;;7.00;99.90;;;;;;5023798;28;20036;-91
2022/02/26 11:27:39;;;;;;;13.43;3.15;;;7.30;99.90;;;;;;5014961;28;20053;-90
2022/02/26 11:30:06;;;;;;;15.57;3.83;;;7.50;99.90;;;;;;5019078;28;20032;-92
2022/02/26 11:32:37;;;;;;;8.48;2.42;;;7.50;99.90;;;;;;5025375;28;20543;-91
2022/02/26 11:35:16;;;;;;;11.65;3.05;;;7.60;99.90;;;;;;5021577;28;20501;-90
2022/02/26 11:37:41;;;;;;;12.40;5.18;;;7.70;99.90;;;;;;5014242;28;20033;-90
2022/02/26 11:40:12;;;;;;;16.35;4.15;;;7.60;99.90;;;;;;5012832;28;20018;-88
2022/02/26 11:42:39;;;;;;;13.30;3.92;;;7.60;99.90;;;;;;5018274;28;20045;-90
2022/02/26 11:45:27;;;;;;;14.23;3.50;;;7.60;99.90;;;;;;5030826;28;20040;-90
2022/02/26 11:48:01;;;;;;;14.32;3.28;;;7.60;99.90;;;;;;5017471;28;20106;-90
2022/02/26 11:50:33;;;;;;;7.65;1.98;;;7.60;99.90;;;;;;5014281;28;20076;-90
2022/02/26 11:53:14;;;;;;;18.40;2.50;;;7.70;99.90;;;;;;5017509;28;20044;-90
2022/02/26 11:55:44;;;;;;;17.63;3.95;;;7.80;99.90;;;;;;5011624;28;20025;-89
2022/02/26 11:58:26;;;;;;;15.98;2.72;;;7.80;99.90;;;;;;5029414;28;20026;-89
2022/02/26 12:00:59;;;;;;;10.45;3.22;;;7.80;99.90;;;;;;5015943;28;20029;-90
2022/02/26 12:03:27;;;;;;;12.07;2.95;;;7.80;99.90;;;;;;5014267;28;20512;-89
2022/02/26 12:06:13;;;;;;;12.07;2.67;;;7.70;99.90;;;;;;5015198;28;20037;-90
2022/02/26 12:08:47;;;;;;;18.08;3.15;;;7.80;99.90;;;;;;5005991;28;20069;-90
2022/02/26 12:11:19;;;;;;;23.58;3.55;;;7.90;99.90;;;;;;5021925;28;20030;-90
2022/02/26 12:13:48;;;;;;;10.52;2.88;;;8.10;99.90;;;;;;5007522;28;20026;-89
2022/02/26 12:16:20;;;;;;;13.80;1.90;;;8.20;99.90;;;;;;5012701;28;20029;-89
2022/02/26 12:18:56;;;;;;;11.53;2.00;;;8.10;99.90;;;;;;5033021;28;20104;-91
2022/02/26 12:21:23;;;;;;;12.88;2.30;;;8.10;99.90;;;;;;5014692;28;20032;-89
2022/02/26 12:24:13;;;;;;;20.83;2.35;;;8.00;99.90;;;;;;5017803;28;20029;-89
2022/02/26 12:26:46;;;;;;;8.80;1.48;;;7.90;99.90;;;;;;5018365;28;20112;-90
2022/02/26 12:29:40;;;;;;;13.70;2.22;;;7.80;99.90;;;;;;5035222;28;20065;-89
2022/02/26 12:32:12;;;;;;;10.95;2.15;;;7.70;99.90;;;;;;5016970;28;20557;-89
2022/02/26 12:34:39;;;;;;;;;;;7.90;99.90;;;;;;5018258;28;20026;-89
2022/02/26 12:37:05;;;;;;;9.18;1.60;;;8.00;99.90;;;;;;5020621;28;19912;-89
2022/02/26 12:39:31;;;;;;;15.40;2.30;;;8.10;99.90;;;;;;5022081;28;20036;-89